Otter Rock, OR (97369)

1:04 AM PDT on September 01, 2015 (GMT -0700)
Sea Crest | | Change Station
CLOSE
Current Station
Personal Weather Station
Location: Otter Rock, OR
Elevation: 112 ft
Nearby Weather Stations

Elev 112 ft 44.76 °N, 124.06 °W | Updated 3 seconds ago

Overcast
Overcast
62.2 °F
Feels Like 62.2 °F
N
0.0
Wind Variable Wind from NW
Gusts 2.5 mph

Today
High -- | Low -- °F
--% Chance of Precip.
Yesterday
High -- | Low -- °F
Precip. -- in
6:38 AM 7:53 PM
Waning Gibbous, 90% visible
Pressure 30.01 in
Visibility 10.0 miles
Clouds Mostly Cloudy 4800 ft
Dew Point 63 °F
Humidity 98%
Rainfall 0.00 in
Snow Depth Not available.
UV 0.0 out of 12
Pollen 3.30 out of 12
Air Quality Not available.
Flu Activity Not available.
METAR KONP 010755Z AUTO 00000KT 10SM BKN048 13/13 A3001 RMK AO2
Pressure 30.01 in
Visibility 10.0 miles
Clouds Mostly Cloudy 4800 ft
Dew Point 63 °F
Humidity 98%
Rainfall 0.00 in
Snow Depth Not available.
UV 0.0 out of 12
Pollen 3.30 out of 12
Air Quality Not available.
Flu Activity Not available.
METAR KONP 010755Z AUTO 00000KT 10SM BKN048 13/13 A3001 RMK AO2

10-Day Weather Forecast

×

Almanac

Astronomy

Sep. 01, 2015 Rise Set
Actual Time
Civil Twilight
Nautical Twilight
Astronomical Twilight
Moon
Length of Visible Light
Length of Day
Tomorrow will be .
, % of the Moon is Illuminated

Today's Extremes

State Highs State Lows

Community

WunderPhotos

Upload Photos

1,851,490 photos uploaded!

WunderBlogs® & News

Nearby

Air Quality

  Air Quality AQ Index Pollutant
Not available.

Snow Depth

Station Depth Elevation

Earthquake Activity

City Distance Mag. Time & Date
Minimum magnitude displayed is 2.5.

Coastal Water Temperatures

Place Temperature

Stations

Nearby Weather Stations

Station Location Temp. Windchill Dew Point Humidity Wind Precip. Elev Updated Type